sensor_id;sensor_type;location;lat;lon;timestamp;P1;durP1;ratioP1;P2;durP2;ratioP2
75716;SDS011;64333;50.138;14.332;2022-10-30T00:00:33;125.95;;;46.40;;
75716;SDS011;64333;50.138;14.332;2022-10-30T00:02:59;107.00;;;43.53;;
75716;SDS011;64333;50.138;14.332;2022-10-30T00:05:24;121.93;;;46.90;;
75716;SDS011;64333;50.138;14.332;2022-10-30T00:07:50;99.78;;;42.03;;
75716;SDS011;64333;50.138;14.332;2022-10-30T00:10:16;117.40;;;44.72;;
75716;SDS011;64333;50.138;14.332;2022-10-30T00:12:42;113.90;;;44.03;;
75716;SDS011;64333;50.138;14.332;2022-10-30T00:15:08;98.70;;;41.10;;
75716;SDS011;64333;50.138;14.332;2022-10-30T00:17:34;79.32;;;34.50;;
75716;SDS011;64333;50.138;14.332;2022-10-30T00:20:00;85.93;;;37.78;;
75716;SDS011;64333;50.138;14.332;2022-10-30T00:22:25;99.88;;;40.42;;
75716;SDS011;64333;50.138;14.332;2022-10-30T00:24:51;89.65;;;38.25;;
75716;SDS011;64333;50.138;14.332;2022-10-30T00:27:16;88.45;;;37.08;;
75716;SDS011;64333;50.138;14.332;2022-10-30T00:29:42;90.53;;;36.50;;
75716;SDS011;64333;50.138;14.332;2022-10-30T00:32:07;94.60;;;38.83;;
75716;SDS011;64333;50.138;14.332;2022-10-30T00:34:32;98.82;;;41.55;;
75716;SDS011;64333;50.138;14.332;2022-10-30T00:36:58;107.28;;;45.63;;
75716;SDS011;64333;50.138;14.332;2022-10-30T00:39:23;100.65;;;41.28;;
75716;SDS011;64333;50.138;14.332;2022-10-30T00:41:48;109.57;;;42.33;;
75716;SDS011;64333;50.138;14.332;2022-10-30T00:44:34;91.60;;;37.92;;
75716;SDS011;64333;50.138;14.332;2022-10-30T00:47:00;87.53;;;38.58;;
75716;SDS011;64333;50.138;14.332;2022-10-30T00:49:30;100.50;;;40.65;;
75716;SDS011;64333;50.138;14.332;2022-10-30T00:52:00;104.78;;;40.67;;
75716;SDS011;64333;50.138;14.332;2022-10-30T00:54:29;100.22;;;40.78;;
75716;SDS011;64333;50.138;14.332;2022-10-30T00:56:57;87.18;;;36.83;;
75716;SDS011;64333;50.138;14.332;2022-10-30T00:59:25;87.43;;;37.80;;
75716;SDS011;64333;50.138;14.332;2022-10-30T01:01:54;70.63;;;35.80;;
75716;SDS011;64333;50.138;14.332;2022-10-30T01:04:19;71.57;;;34.22;;
75716;SDS011;64333;50.138;14.332;2022-10-30T01:06:46;78.78;;;36.15;;
75716;SDS011;64333;50.138;14.332;2022-10-30T01:09:16;81.45;;;35.85;;
75716;SDS011;64333;50.138;14.332;2022-10-30T01:11:42;77.15;;;35.63;;
75716;SDS011;64333;50.138;14.332;2022-10-30T01:14:08;75.75;;;36.25;;
75716;SDS011;64333;50.138;14.332;2022-10-30T01:19:15;83.15;;;35.70;;
75716;SDS011;64333;50.138;14.332;2022-10-30T01:30:25;87.25;;;36.33;;
75716;SDS011;64333;50.138;14.332;2022-10-30T01:35:51;95.13;;;37.78;;
75716;SDS011;64333;50.138;14.332;2022-10-30T01:38:40;111.00;;;43.25;;
75716;SDS011;64333;50.138;14.332;2022-10-30T01:41:10;128.55;;;45.40;;
75716;SDS011;64333;50.138;14.332;2022-10-30T01:43:35;160.23;;;51.47;;
75716;SDS011;64333;50.138;14.332;2022-10-30T01:46:06;144.63;;;50.13;;
75716;SDS011;64333;50.138;14.332;2022-10-30T01:48:57;153.48;;;51.22;;
75716;SDS011;64333;50.138;14.332;2022-10-30T01:51:43;124.97;;;46.10;;
75716;SDS011;64333;50.138;14.332;2022-10-30T01:54:26;136.30;;;46.70;;
75716;SDS011;64333;50.138;14.332;2022-10-30T02:00:09;120.43;;;45.22;;
75716;SDS011;64333;50.138;14.332;2022-10-30T02:02:37;113.00;;;43.97;;
75716;SDS011;64333;50.138;14.332;2022-10-30T02:05:03;111.90;;;42.65;;
75716;SDS011;64333;50.138;14.332;2022-10-30T02:07:31;121.75;;;45.30;;
75716;SDS011;64333;50.138;14.332;2022-10-30T02:09:56;120.97;;;45.20;;
75716;SDS011;64333;50.138;14.332;2022-10-30T02:12:22;106.68;;;42.08;;
75716;SDS011;64333;50.138;14.332;2022-10-30T02:14:49;123.75;;;45.58;;
75716;SDS011;64333;50.138;14.332;2022-10-30T02:17:18;96.47;;;40.65;;
75716;SDS011;64333;50.138;14.332;2022-10-30T02:19:44;119.32;;;43.90;;
75716;SDS011;64333;50.138;14.332;2022-10-30T02:22:09;135.73;;;47.50;;
75716;SDS011;64333;50.138;14.332;2022-10-30T02:24:36;144.02;;;48.78;;
75716;SDS011;64333;50.138;14.332;2022-10-30T02:27:01;162.43;;;51.53;;
75716;SDS011;64333;50.138;14.332;2022-10-30T02:29:27;153.50;;;49.22;;
75716;SDS011;64333;50.138;14.332;2022-10-30T02:31:52;168.13;;;50.58;;
75716;SDS011;64333;50.138;14.332;2022-10-30T02:34:18;188.85;;;53.35;;
75716;SDS011;64333;50.138;14.332;2022-10-30T02:36:43;185.68;;;53.20;;
75716;SDS011;64333;50.138;14.332;2022-10-30T02:39:09;175.93;;;56.25;;
75716;SDS011;64333;50.138;14.332;2022-10-30T02:41:34;203.85;;;54.75;;
75716;SDS011;64333;50.138;14.332;2022-10-30T02:44:00;203.02;;;56.15;;
75716;SDS011;64333;50.138;14.332;2022-10-30T02:46:25;212.20;;;59.90;;
75716;SDS011;64333;50.138;14.332;2022-10-30T02:48:51;240.63;;;61.60;;
75716;SDS011;64333;50.138;14.332;2022-10-30T02:51:16;225.38;;;62.53;;
75716;SDS011;64333;50.138;14.332;2022-10-30T02:53:42;206.80;;;56.47;;
75716;SDS011;64333;50.138;14.332;2022-10-30T02:56:09;192.77;;;56.50;;
75716;SDS011;64333;50.138;14.332;2022-10-30T02:58:36;195.13;;;55.25;;
75716;SDS011;64333;50.138;14.332;2022-10-30T03:01:06;184.95;;;56.85;;
75716;SDS011;64333;50.138;14.332;2022-10-30T03:03:33;179.98;;;54.45;;
75716;SDS011;64333;50.138;14.332;2022-10-30T03:06:00;206.93;;;58.13;;
75716;SDS011;64333;50.138;14.332;2022-10-30T03:08:29;214.65;;;57.95;;
75716;SDS011;64333;50.138;14.332;2022-10-30T03:11:14;234.40;;;58.00;;
75716;SDS011;64333;50.138;14.332;2022-10-30T03:13:41;330.27;;;71.63;;
75716;SDS011;64333;50.138;14.332;2022-10-30T03:18:37;327.80;;;72.28;;
75716;SDS011;64333;50.138;14.332;2022-10-30T03:21:03;358.23;;;73.20;;
75716;SDS011;64333;50.138;14.332;2022-10-30T03:23:30;320.63;;;68.53;;
75716;SDS011;64333;50.138;14.332;2022-10-30T03:25:57;394.75;;;78.22;;
75716;SDS011;64333;50.138;14.332;2022-10-30T03:28:23;335.30;;;69.70;;
75716;SDS011;64333;50.138;14.332;2022-10-30T03:30:51;310.02;;;65.72;;
75716;SDS011;64333;50.138;14.332;2022-10-30T03:33:22;250.18;;;54.72;;
75716;SDS011;64333;50.138;14.332;2022-10-30T03:35:47;254.40;;;63.22;;
75716;SDS011;64333;50.138;14.332;2022-10-30T03:38:12;253.63;;;60.35;;
75716;SDS011;64333;50.138;14.332;2022-10-30T03:40:38;197.80;;;54.15;;
75716;SDS011;64333;50.138;14.332;2022-10-30T03:43:04;198.70;;;54.03;;
75716;SDS011;64333;50.138;14.332;2022-10-30T03:45:30;171.93;;;49.67;;
75716;SDS011;64333;50.138;14.332;2022-10-30T03:47:57;172.25;;;52.38;;
75716;SDS011;64333;50.138;14.332;2022-10-30T03:50:24;188.57;;;57.33;;
75716;SDS011;64333;50.138;14.332;2022-10-30T03:52:49;146.77;;;50.08;;
75716;SDS011;64333;50.138;14.332;2022-10-30T03:55:17;134.13;;;46.80;;
75716;SDS011;64333;50.138;14.332;2022-10-30T03:57:42;159.93;;;49.03;;
75716;SDS011;64333;50.138;14.332;2022-10-30T04:00:08;147.00;;;47.78;;
75716;SDS011;64333;50.138;14.332;2022-10-30T04:02:33;151.45;;;51.40;;
75716;SDS011;64333;50.138;14.332;2022-10-30T04:04:59;178.00;;;56.25;;
75716;SDS011;64333;50.138;14.332;2022-10-30T04:07:24;177.98;;;54.25;;
75716;SDS011;64333;50.138;14.332;2022-10-30T04:09:49;150.27;;;48.53;;
75716;SDS011;64333;50.138;14.332;2022-10-30T04:12:15;170.48;;;50.63;;
75716;SDS011;64333;50.138;14.332;2022-10-30T04:14:40;187.35;;;57.00;;
75716;SDS011;64333;50.138;14.332;2022-10-30T04:17:05;178.02;;;54.10;;
75716;SDS011;64333;50.138;14.332;2022-10-30T04:19:31;163.15;;;51.30;;
75716;SDS011;64333;50.138;14.332;2022-10-30T04:21:56;152.27;;;49.05;;
75716;SDS011;64333;50.138;14.332;2022-10-30T04:24:21;118.38;;;45.65;;
75716;SDS011;64333;50.138;14.332;2022-10-30T04:26:47;131.80;;;42.05;;
75716;SDS011;64333;50.138;14.332;2022-10-30T04:29:13;141.48;;;44.63;;
75716;SDS011;64333;50.138;14.332;2022-10-30T04:31:38;171.57;;;46.42;;
75716;SDS011;64333;50.138;14.332;2022-10-30T04:34:04;141.98;;;43.25;;
75716;SDS011;64333;50.138;14.332;2022-10-30T04:36:29;122.45;;;40.95;;
75716;SDS011;64333;50.138;14.332;2022-10-30T04:38:57;150.27;;;45.90;;
75716;SDS011;64333;50.138;14.332;2022-10-30T04:41:23;156.00;;;47.15;;
75716;SDS011;64333;50.138;14.332;2022-10-30T04:43:49;230.25;;;50.42;;
75716;SDS011;64333;50.138;14.332;2022-10-30T04:46:14;191.30;;;49.67;;
75716;SDS011;64333;50.138;14.332;2022-10-30T04:48:41;196.10;;;49.95;;
75716;SDS011;64333;50.138;14.332;2022-10-30T04:51:07;154.13;;;48.55;;
75716;SDS011;64333;50.138;14.332;2022-10-30T04:53:33;177.82;;;47.70;;
75716;SDS011;64333;50.138;14.332;2022-10-30T04:55:58;137.30;;;44.53;;
75716;SDS011;64333;50.138;14.332;2022-10-30T04:58:24;135.57;;;41.33;;
75716;SDS011;64333;50.138;14.332;2022-10-30T05:00:49;104.95;;;38.63;;
75716;SDS011;64333;50.138;14.332;2022-10-30T05:03:16;139.60;;;43.78;;
75716;SDS011;64333;50.138;14.332;2022-10-30T05:05:43;116.43;;;41.63;;
75716;SDS011;64333;50.138;14.332;2022-10-30T05:08:09;117.88;;;39.17;;
75716;SDS011;64333;50.138;14.332;2022-10-30T05:10:37;119.88;;;40.33;;
75716;SDS011;64333;50.138;14.332;2022-10-30T05:13:04;109.65;;;38.63;;
75716;SDS011;64333;50.138;14.332;2022-10-30T05:15:29;115.70;;;38.83;;
75716;SDS011;64333;50.138;14.332;2022-10-30T05:17:54;96.72;;;39.83;;
75716;SDS011;64333;50.138;14.332;2022-10-30T05:20:20;92.93;;;36.22;;
75716;SDS011;64333;50.138;14.332;2022-10-30T05:22:45;96.75;;;38.25;;
75716;SDS011;64333;50.138;14.332;2022-10-30T05:25:18;105.70;;;38.30;;
75716;SDS011;64333;50.138;14.332;2022-10-30T05:27:43;87.30;;;36.22;;
75716;SDS011;64333;50.138;14.332;2022-10-30T05:30:09;151.30;;;41.70;;
75716;SDS011;64333;50.138;14.332;2022-10-30T05:32:34;158.75;;;42.22;;
75716;SDS011;64333;50.138;14.332;2022-10-30T05:34:59;102.80;;;37.00;;
75716;SDS011;64333;50.138;14.332;2022-10-30T05:37:25;83.72;;;35.97;;
75716;SDS011;64333;50.138;14.332;2022-10-30T05:39:50;146.45;;;43.60;;
75716;SDS011;64333;50.138;14.332;2022-10-30T05:42:16;111.05;;;40.20;;
75716;SDS011;64333;50.138;14.332;2022-10-30T05:44:41;127.45;;;43.30;;
75716;SDS011;64333;50.138;14.332;2022-10-30T05:47:06;210.88;;;53.30;;
75716;SDS011;64333;50.138;14.332;2022-10-30T05:49:32;138.07;;;46.95;;
75716;SDS011;64333;50.138;14.332;2022-10-30T05:51:57;148.93;;;50.20;;
75716;SDS011;64333;50.138;14.332;2022-10-30T05:54:22;184.27;;;52.15;;
75716;SDS011;64333;50.138;14.332;2022-10-30T05:56:48;195.05;;;56.83;;
75716;SDS011;64333;50.138;14.332;2022-10-30T05:59:13;182.52;;;51.75;;
75716;SDS011;64333;50.138;14.332;2022-10-30T06:01:38;252.38;;;57.35;;
75716;SDS011;64333;50.138;14.332;2022-10-30T06:04:04;167.90;;;48.80;;
75716;SDS011;64333;50.138;14.332;2022-10-30T06:06:29;193.55;;;53.05;;
75716;SDS011;64333;50.138;14.332;2022-10-30T06:08:54;194.55;;;53.42;;
75716;SDS011;64333;50.138;14.332;2022-10-30T06:11:20;200.70;;;56.88;;
75716;SDS011;64333;50.138;14.332;2022-10-30T06:13:46;235.07;;;56.95;;
75716;SDS011;64333;50.138;14.332;2022-10-30T06:16:12;192.38;;;52.80;;
75716;SDS011;64333;50.138;14.332;2022-10-30T06:18:37;177.30;;;53.13;;
75716;SDS011;64333;50.138;14.332;2022-10-30T06:21:03;193.00;;;53.85;;
75716;SDS011;64333;50.138;14.332;2022-10-30T06:23:28;112.63;;;42.55;;
75716;SDS011;64333;50.138;14.332;2022-10-30T06:25:53;113.03;;;42.75;;
75716;SDS011;64333;50.138;14.332;2022-10-30T06:28:19;106.05;;;45.90;;
75716;SDS011;64333;50.138;14.332;2022-10-30T06:30:44;78.63;;;35.08;;
75716;SDS011;64333;50.138;14.332;2022-10-30T06:33:09;90.22;;;38.55;;
75716;SDS011;64333;50.138;14.332;2022-10-30T06:35:35;100.55;;;37.60;;
75716;SDS011;64333;50.138;14.332;2022-10-30T06:38:00;83.00;;;37.40;;
75716;SDS011;64333;50.138;14.332;2022-10-30T06:40:26;89.43;;;39.42;;
75716;SDS011;64333;50.138;14.332;2022-10-30T06:42:54;84.82;;;37.95;;
75716;SDS011;64333;50.138;14.332;2022-10-30T06:45:20;65.18;;;32.15;;
75716;SDS011;64333;50.138;14.332;2022-10-30T06:47:47;52.38;;;28.58;;
75716;SDS011;64333;50.138;14.332;2022-10-30T06:50:13;52.50;;;28.77;;
75716;SDS011;64333;50.138;14.332;2022-10-30T06:52:41;47.17;;;27.90;;
75716;SDS011;64333;50.138;14.332;2022-10-30T06:55:07;43.15;;;25.08;;
75716;SDS011;64333;50.138;14.332;2022-10-30T06:57:33;39.72;;;23.48;;
75716;SDS011;64333;50.138;14.332;2022-10-30T06:59:58;37.35;;;23.05;;
75716;SDS011;64333;50.138;14.332;2022-10-30T07:02:24;35.95;;;22.90;;
75716;SDS011;64333;50.138;14.332;2022-10-30T07:04:49;33.10;;;22.38;;
75716;SDS011;64333;50.138;14.332;2022-10-30T07:07:15;35.13;;;23.70;;
75716;SDS011;64333;50.138;14.332;2022-10-30T07:09:40;35.03;;;23.35;;
75716;SDS011;64333;50.138;14.332;2022-10-30T07:12:06;38.53;;;24.60;;
75716;SDS011;64333;50.138;14.332;2022-10-30T07:14:33;42.42;;;26.83;;
75716;SDS011;64333;50.138;14.332;2022-10-30T07:16:59;41.88;;;26.73;;
75716;SDS011;64333;50.138;14.332;2022-10-30T07:19:24;41.20;;;26.17;;
75716;SDS011;64333;50.138;14.332;2022-10-30T07:21:49;36.58;;;21.98;;
75716;SDS011;64333;50.138;14.332;2022-10-30T07:24:15;33.80;;;23.98;;
75716;SDS011;64333;50.138;14.332;2022-10-30T07:26:40;31.60;;;21.67;;
75716;SDS011;64333;50.138;14.332;2022-10-30T07:29:06;27.92;;;20.20;;
75716;SDS011;64333;50.138;14.332;2022-10-30T07:31:31;32.03;;;20.77;;
75716;SDS011;64333;50.138;14.332;2022-10-30T07:33:57;30.80;;;20.40;;
75716;SDS011;64333;50.138;14.332;2022-10-30T07:36:22;32.45;;;22.13;;
75716;SDS011;64333;50.138;14.332;2022-10-30T07:38:48;48.45;;;31.60;;
75716;SDS011;64333;50.138;14.332;2022-10-30T07:41:16;33.78;;;22.45;;
75716;SDS011;64333;50.138;14.332;2022-10-30T07:43:42;31.05;;;21.23;;
75716;SDS011;64333;50.138;14.332;2022-10-30T07:46:07;27.02;;;18.95;;
75716;SDS011;64333;50.138;14.332;2022-10-30T07:48:32;29.20;;;20.20;;
75716;SDS011;64333;50.138;14.332;2022-10-30T07:50:58;30.33;;;20.70;;
75716;SDS011;64333;50.138;14.332;2022-10-30T07:53:23;27.40;;;17.90;;
75716;SDS011;64333;50.138;14.332;2022-10-30T07:55:48;24.42;;;17.15;;
75716;SDS011;64333;50.138;14.332;2022-10-30T07:58:14;24.67;;;17.58;;
75716;SDS011;64333;50.138;14.332;2022-10-30T08:00:39;25.25;;;17.30;;
75716;SDS011;64333;50.138;14.332;2022-10-30T08:03:04;27.55;;;18.98;;
75716;SDS011;64333;50.138;14.332;2022-10-30T08:05:30;25.88;;;17.45;;
75716;SDS011;64333;50.138;14.332;2022-10-30T08:07:55;23.00;;;17.20;;
75716;SDS011;64333;50.138;14.332;2022-10-30T08:10:21;23.80;;;17.45;;
75716;SDS011;64333;50.138;14.332;2022-10-30T08:12:46;24.85;;;17.17;;
75716;SDS011;64333;50.138;14.332;2022-10-30T08:15:12;23.42;;;17.95;;
75716;SDS011;64333;50.138;14.332;2022-10-30T08:17:41;28.17;;;20.45;;
75716;SDS011;64333;50.138;14.332;2022-10-30T08:20:08;22.95;;;16.67;;
75716;SDS011;64333;50.138;14.332;2022-10-30T08:22:42;21.40;;;16.42;;
75716;SDS011;64333;50.138;14.332;2022-10-30T08:25:11;22.63;;;17.15;;
75716;SDS011;64333;50.138;14.332;2022-10-30T08:27:36;23.48;;;17.30;;
75716;SDS011;64333;50.138;14.332;2022-10-30T08:30:02;25.80;;;18.17;;
75716;SDS011;64333;50.138;14.332;2022-10-30T08:32:27;29.20;;;17.88;;
75716;SDS011;64333;50.138;14.332;2022-10-30T08:34:53;35.53;;;18.38;;
75716;SDS011;64333;50.138;14.332;2022-10-30T08:37:18;31.35;;;19.30;;
75716;SDS011;64333;50.138;14.332;2022-10-30T08:39:43;30.23;;;17.95;;
75716;SDS011;64333;50.138;14.332;2022-10-30T08:42:09;45.88;;;20.08;;
75716;SDS011;64333;50.138;14.332;2022-10-30T08:44:34;40.53;;;19.35;;
75716;SDS011;64333;50.138;14.332;2022-10-30T08:46:59;31.38;;;18.67;;
75716;SDS011;64333;50.138;14.332;2022-10-30T08:49:25;43.53;;;19.65;;
75716;SDS011;64333;50.138;14.332;2022-10-30T08:51:50;32.90;;;19.70;;
75716;SDS011;64333;50.138;14.332;2022-10-30T08:54:16;42.58;;;19.98;;
75716;SDS011;64333;50.138;14.332;2022-10-30T08:56:41;31.25;;;19.92;;
75716;SDS011;64333;50.138;14.332;2022-10-30T08:59:06;25.05;;;16.25;;
75716;SDS011;64333;50.138;14.332;2022-10-30T09:01:32;37.45;;;18.60;;
75716;SDS011;64333;50.138;14.332;2022-10-30T09:03:57;30.55;;;18.00;;
75716;SDS011;64333;50.138;14.332;2022-10-30T09:06:23;29.25;;;17.38;;
75716;SDS011;64333;50.138;14.332;2022-10-30T09:08:48;35.55;;;18.55;;
75716;SDS011;64333;50.138;14.332;2022-10-30T09:11:13;28.05;;;17.05;;
75716;SDS011;64333;50.138;14.332;2022-10-30T09:13:39;24.25;;;15.82;;
75716;SDS011;64333;50.138;14.332;2022-10-30T09:16:05;27.23;;;15.75;;
75716;SDS011;64333;50.138;14.332;2022-10-30T09:18:31;31.60;;;16.55;;
75716;SDS011;64333;50.138;14.332;2022-10-30T09:20:56;33.53;;;17.98;;
75716;SDS011;64333;50.138;14.332;2022-10-30T09:23:21;29.63;;;18.38;;
75716;SDS011;64333;50.138;14.332;2022-10-30T09:25:47;43.17;;;18.52;;
75716;SDS011;64333;50.138;14.332;2022-10-30T09:28:12;31.00;;;19.42;;
75716;SDS011;64333;50.138;14.332;2022-10-30T09:30:38;30.95;;;18.15;;
75716;SDS011;64333;50.138;14.332;2022-10-30T09:33:03;32.30;;;23.58;;
75716;SDS011;64333;50.138;14.332;2022-10-30T09:35:29;39.15;;;20.45;;
75716;SDS011;64333;50.138;14.332;2022-10-30T09:37:55;32.25;;;18.73;;
75716;SDS011;64333;50.138;14.332;2022-10-30T09:40:33;31.77;;;19.95;;
75716;SDS011;64333;50.138;14.332;2022-10-30T09:45:47;26.90;;;18.50;;
75716;SDS011;64333;50.138;14.332;2022-10-30T09:57:06;29.45;;;18.85;;
75716;SDS011;64333;50.138;14.332;2022-10-30T10:04:43;28.20;;;18.13;;
75716;SDS011;64333;50.138;14.332;2022-10-30T10:09:52;28.85;;;19.63;;
75716;SDS011;64333;50.138;14.332;2022-10-30T10:12:29;29.42;;;18.77;;
75716;SDS011;64333;50.138;14.332;2022-10-30T10:14:59;27.77;;;19.23;;
75716;SDS011;64333;50.138;14.332;2022-10-30T10:17:33;29.23;;;18.48;;
75716;SDS011;64333;50.138;14.332;2022-10-30T10:20:02;27.15;;;18.63;;
75716;SDS011;64333;50.138;14.332;2022-10-30T10:22:37;29.63;;;18.52;;
75716;SDS011;64333;50.138;14.332;2022-10-30T10:25:08;27.65;;;18.08;;
75716;SDS011;64333;50.138;14.332;2022-10-30T10:30:22;25.80;;;17.50;;
75716;SDS011;64333;50.138;14.332;2022-10-30T10:33:02;29.98;;;18.30;;
75716;SDS011;64333;50.138;14.332;2022-10-30T10:46:20;24.50;;;18.17;;
75716;SDS011;64333;50.138;14.332;2022-10-30T10:51:58;21.83;;;16.85;;
75716;SDS011;64333;50.138;14.332;2022-10-30T10:54:29;27.38;;;17.42;;
75716;SDS011;64333;50.138;14.332;2022-10-30T10:57:04;24.67;;;17.55;;
75716;SDS011;64333;50.138;14.332;2022-10-30T11:04:48;25.17;;;17.15;;
75716;SDS011;64333;50.138;14.332;2022-10-30T11:07:20;26.83;;;20.08;;
75716;SDS011;64333;50.138;14.332;2022-10-30T11:09:53;28.80;;;19.10;;
75716;SDS011;64333;50.138;14.332;2022-10-30T11:12:29;28.00;;;19.77;;
75716;SDS011;64333;50.138;14.332;2022-10-30T11:15:00;27.02;;;18.08;;
75716;SDS011;64333;50.138;14.332;2022-10-30T11:18:01;36.30;;;23.67;;
75716;SDS011;64333;50.138;14.332;2022-10-30T11:25:55;38.15;;;24.30;;
75716;SDS011;64333;50.138;14.332;2022-10-30T11:31:20;30.33;;;20.42;;
75716;SDS011;64333;50.138;14.332;2022-10-30T11:33:48;27.98;;;19.90;;
75716;SDS011;64333;50.138;14.332;2022-10-30T11:36:15;27.52;;;20.00;;
75716;SDS011;64333;50.138;14.332;2022-10-30T11:38:42;30.17;;;20.27;;
75716;SDS011;64333;50.138;14.332;2022-10-30T11:41:07;27.73;;;19.45;;
75716;SDS011;64333;50.138;14.332;2022-10-30T11:43:37;30.08;;;20.20;;
75716;SDS011;64333;50.138;14.332;2022-10-30T11:46:05;29.35;;;19.92;;
75716;SDS011;64333;50.138;14.332;2022-10-30T11:48:33;28.50;;;20.25;;
75716;SDS011;64333;50.138;14.332;2022-10-30T11:51:03;29.27;;;19.90;;
75716;SDS011;64333;50.138;14.332;2022-10-30T11:53:36;27.85;;;19.08;;
75716;SDS011;64333;50.138;14.332;2022-10-30T11:56:14;30.65;;;19.13;;
75716;SDS011;64333;50.138;14.332;2022-10-30T11:58:43;32.17;;;21.02;;
75716;SDS011;64333;50.138;14.332;2022-10-30T12:01:13;35.50;;;21.05;;
75716;SDS011;64333;50.138;14.332;2022-10-30T12:03:46;36.67;;;22.13;;
75716;SDS011;64333;50.138;14.332;2022-10-30T12:06:19;35.63;;;22.75;;
75716;SDS011;64333;50.138;14.332;2022-10-30T12:08:57;36.90;;;22.55;;
75716;SDS011;64333;50.138;14.332;2022-10-30T12:11:34;41.67;;;22.85;;
75716;SDS011;64333;50.138;14.332;2022-10-30T12:14:02;40.90;;;24.90;;
75716;SDS011;64333;50.138;14.332;2022-10-30T12:16:28;40.25;;;26.67;;
75716;SDS011;64333;50.138;14.332;2022-10-30T12:21:27;42.10;;;24.63;;
75716;SDS011;64333;50.138;14.332;2022-10-30T12:24:00;45.15;;;27.92;;
75716;SDS011;64333;50.138;14.332;2022-10-30T12:26:31;44.80;;;26.45;;
75716;SDS011;64333;50.138;14.332;2022-10-30T12:28:59;47.83;;;26.92;;
75716;SDS011;64333;50.138;14.332;2022-10-30T12:31:30;50.17;;;26.52;;
75716;SDS011;64333;50.138;14.332;2022-10-30T12:37:19;58.20;;;29.17;;
75716;SDS011;64333;50.138;14.332;2022-10-30T12:42:33;60.22;;;28.90;;
75716;SDS011;64333;50.138;14.332;2022-10-30T12:48:21;56.92;;;27.45;;
75716;SDS011;64333;50.138;14.332;2022-10-30T12:53:39;55.03;;;28.13;;
75716;SDS011;64333;50.138;14.332;2022-10-30T12:56:14;58.85;;;28.58;;
75716;SDS011;64333;50.138;14.332;2022-10-30T13:01:43;58.38;;;27.33;;
75716;SDS011;64333;50.138;14.332;2022-10-30T13:04:17;57.35;;;27.90;;
75716;SDS011;64333;50.138;14.332;2022-10-30T13:07:09;53.38;;;27.02;;
75716;SDS011;64333;50.138;14.332;2022-10-30T13:12:46;52.10;;;27.23;;
75716;SDS011;64333;50.138;14.332;2022-10-30T13:18:13;59.15;;;28.23;;
75716;SDS011;64333;50.138;14.332;2022-10-30T13:20:46;55.63;;;27.95;;
75716;SDS011;64333;50.138;14.332;2022-10-30T13:23:24;60.78;;;30.63;;
75716;SDS011;64333;50.138;14.332;2022-10-30T13:26:08;56.67;;;28.48;;
75716;SDS011;64333;50.138;14.332;2022-10-30T13:31:31;52.60;;;27.02;;
75716;SDS011;64333;50.138;14.332;2022-10-30T13:34:03;57.47;;;27.50;;
75716;SDS011;64333;50.138;14.332;2022-10-30T13:36:41;51.65;;;27.33;;
75716;SDS011;64333;50.138;14.332;2022-10-30T13:39:27;47.45;;;25.45;;
75716;SDS011;64333;50.138;14.332;2022-10-30T13:44:54;52.25;;;25.65;;
75716;SDS011;64333;50.138;14.332;2022-10-30T13:47:43;49.30;;;25.33;;
75716;SDS011;64333;50.138;14.332;2022-10-30T13:53:12;50.65;;;26.80;;
75716;SDS011;64333;50.138;14.332;2022-10-30T13:55:43;54.13;;;27.23;;
75716;SDS011;64333;50.138;14.332;2022-10-30T13:58:14;57.20;;;27.13;;
75716;SDS011;64333;50.138;14.332;2022-10-30T14:01:12;52.80;;;25.98;;
75716;SDS011;64333;50.138;14.332;2022-10-30T14:07:16;52.00;;;26.20;;
75716;SDS011;64333;50.138;14.332;2022-10-30T14:15:47;48.80;;;27.73;;
75716;SDS011;64333;50.138;14.332;2022-10-30T14:18:33;52.60;;;26.92;;
75716;SDS011;64333;50.138;14.332;2022-10-30T14:24:18;60.15;;;30.90;;
75716;SDS011;64333;50.138;14.332;2022-10-30T14:31:57;62.03;;;31.17;;
75716;SDS011;64333;50.138;14.332;2022-10-30T14:34:42;54.58;;;29.75;;
75716;SDS011;64333;50.138;14.332;2022-10-30T14:37:11;54.88;;;29.38;;
75716;SDS011;64333;50.138;14.332;2022-10-30T14:39:38;53.50;;;30.13;;
75716;SDS011;64333;50.138;14.332;2022-10-30T14:42:22;55.10;;;27.65;;
75716;SDS011;64333;50.138;14.332;2022-10-30T14:53:59;60.63;;;29.42;;
75716;SDS011;64333;50.138;14.332;2022-10-30T14:56:48;60.17;;;29.27;;
75716;SDS011;64333;50.138;14.332;2022-10-30T15:04:14;64.90;;;31.67;;
75716;SDS011;64333;50.138;14.332;2022-10-30T15:09:39;68.45;;;32.63;;
75716;SDS011;64333;50.138;14.332;2022-10-30T15:14:45;64.00;;;32.03;;
75716;SDS011;64333;50.138;14.332;2022-10-30T15:17:22;73.72;;;34.17;;
75716;SDS011;64333;50.138;14.332;2022-10-30T15:19:48;70.97;;;33.88;;
75716;SDS011;64333;50.138;14.332;2022-10-30T15:22:18;71.85;;;33.38;;
75716;SDS011;64333;50.138;14.332;2022-10-30T15:24:45;77.47;;;37.45;;
75716;SDS011;64333;50.138;14.332;2022-10-30T15:27:14;90.80;;;38.35;;
75716;SDS011;64333;50.138;14.332;2022-10-30T15:29:43;83.75;;;37.25;;
75716;SDS011;64333;50.138;14.332;2022-10-30T15:32:20;97.45;;;39.80;;
75716;SDS011;64333;50.138;14.332;2022-10-30T15:34:56;98.78;;;40.08;;
75716;SDS011;64333;50.138;14.332;2022-10-30T15:37:27;105.95;;;44.80;;
75716;SDS011;64333;50.138;14.332;2022-10-30T15:42:34;121.32;;;46.45;;
75716;SDS011;64333;50.138;14.332;2022-10-30T15:44:59;120.22;;;46.65;;
75716;SDS011;64333;50.138;14.332;2022-10-30T15:47:26;148.73;;;50.63;;
75716;SDS011;64333;50.138;14.332;2022-10-30T15:49:53;151.02;;;52.47;;
75716;SDS011;64333;50.138;14.332;2022-10-30T15:52:21;158.82;;;54.88;;
75716;SDS011;64333;50.138;14.332;2022-10-30T15:54:53;157.07;;;52.53;;
75716;SDS011;64333;50.138;14.332;2022-10-30T15:57:25;141.43;;;50.85;;
75716;SDS011;64333;50.138;14.332;2022-10-30T15:59:55;150.45;;;53.75;;
75716;SDS011;64333;50.138;14.332;2022-10-30T16:02:23;147.20;;;53.85;;
75716;SDS011;64333;50.138;14.332;2022-10-30T16:04:50;187.80;;;65.05;;
75716;SDS011;64333;50.138;14.332;2022-10-30T16:09:57;166.40;;;62.33;;
75716;SDS011;64333;50.138;14.332;2022-10-30T16:12:26;143.23;;;54.75;;
75716;SDS011;64333;50.138;14.332;2022-10-30T16:14:53;148.52;;;53.70;;
75716;SDS011;64333;50.138;14.332;2022-10-30T16:17:20;126.40;;;50.00;;
75716;SDS011;64333;50.138;14.332;2022-10-30T16:19:50;133.43;;;51.10;;
75716;SDS011;64333;50.138;14.332;2022-10-30T16:22:27;148.23;;;57.25;;
75716;SDS011;64333;50.138;14.332;2022-10-30T16:24:59;154.80;;;57.08;;
75716;SDS011;64333;50.138;14.332;2022-10-30T16:27:25;146.57;;;52.78;;
75716;SDS011;64333;50.138;14.332;2022-10-30T16:29:56;142.13;;;54.38;;
75716;SDS011;64333;50.138;14.332;2022-10-30T16:32:24;184.70;;;67.97;;
75716;SDS011;64333;50.138;14.332;2022-10-30T16:34:58;200.32;;;76.22;;